createdAt,value
2022-12-26T00:02:14.748Z,10.40
2022-12-26T00:06:20.155Z,10.40
2022-12-26T00:10:22.976Z,10.40
2022-12-26T00:14:26.011Z,10.40
2022-12-26T00:18:28.793Z,10.40
2022-12-26T00:22:32.958Z,10.40
2022-12-26T00:26:36.954Z,10.40
2022-12-26T00:30:39.775Z,10.40
2022-12-26T00:34:42.601Z,10.40
2022-12-26T00:38:47.165Z,10.40
2022-12-26T00:42:49.975Z,10.40
2022-12-26T00:46:52.837Z,10.40
2022-12-26T00:50:55.763Z,10.40
2022-12-26T00:54:59.928Z,10.40
2022-12-26T00:59:02.722Z,10.40
2022-12-26T01:03:08.221Z,10.30
2022-12-26T01:07:11.038Z,10.30
2022-12-26T01:11:16.104Z,10.30
2022-12-26T01:15:19.264Z,10.30
2022-12-26T01:19:22.102Z,10.30
2022-12-26T01:23:24.937Z,10.20
2022-12-26T01:27:29.072Z,10.20
2022-12-26T01:31:31.915Z,10.20
2022-12-26T01:35:34.912Z,10.20
2022-12-26T01:39:37.895Z,10.10
2022-12-26T01:43:53.358Z,10.10
2022-12-26T01:47:59.736Z,10.10
2022-12-26T01:52:04.469Z,10.10
2022-12-26T01:56:09.778Z,10.10
2022-12-26T02:00:14.869Z,10.10
2022-12-26T02:04:36.515Z,10.10
2022-12-26T02:08:40.086Z,10.00
2022-12-26T02:12:42.902Z,10.00
2022-12-26T02:16:47.922Z,10.00
2022-12-26T02:20:57.912Z,10.00
2022-12-26T02:25:18.808Z,10.00
2022-12-26T02:29:42.665Z,10.00
2022-12-26T02:33:51.386Z,10.00
2022-12-26T02:37:59.350Z,10.00
2022-12-26T02:42:06.817Z,10.00
2022-12-26T02:46:30.396Z,10.00
2022-12-26T02:50:55.132Z,10.00
2022-12-26T02:55:19.330Z,10.00
2022-12-26T02:59:55.404Z,10.00
2022-12-26T03:04:19.079Z,10.10
2022-12-26T03:08:45.497Z,10.10
2022-12-26T03:13:07.632Z,10.10
2022-12-26T03:17:21.091Z,10.10
2022-12-26T03:21:25.655Z,10.10
2022-12-26T03:25:52.307Z,10.10
2022-12-26T03:30:12.598Z,10.10
2022-12-26T03:34:21.160Z,10.10
2022-12-26T03:38:25.653Z,10.10
2022-12-26T03:42:51.223Z,10.10
2022-12-26T03:47:16.987Z,10.10
2022-12-26T03:51:41.225Z,10.10
2022-12-26T03:56:08.473Z,10.10
2022-12-26T04:00:31.661Z,10.10
2022-12-26T04:04:52.869Z,10.10
2022-12-26T04:09:17.958Z,10.00
2022-12-26T04:13:39.677Z,10.00
2022-12-26T04:18:04.806Z,10.00
2022-12-26T04:22:33.510Z,10.00
2022-12-26T04:26:56.278Z,10.10
2022-12-26T04:31:19.843Z,10.10
2022-12-26T04:35:45.736Z,10.10
2022-12-26T04:40:09.045Z,10.10
2022-12-26T04:44:12.926Z,10.10
2022-12-26T04:48:33.521Z,10.10
2022-12-26T04:52:54.999Z,10.10
2022-12-26T04:56:57.827Z,10.10
2022-12-26T05:01:21.520Z,10.10
2022-12-26T05:05:42.102Z,10.10
2022-12-26T05:09:46.680Z,10.10
2022-12-26T05:13:49.509Z,10.10
2022-12-26T05:18:09.667Z,10.00
2022-12-26T05:22:30.263Z,9.90
2022-12-26T05:26:51.709Z,9.90
2022-12-26T05:30:54.536Z,9.90
2022-12-26T05:34:57.376Z,9.90
2022-12-26T05:39:00.729Z,9.80
2022-12-26T05:43:04.963Z,9.80
2022-12-26T05:47:07.829Z,9.80
2022-12-26T05:51:10.630Z,9.80
2022-12-26T05:55:13.421Z,9.70
2022-12-26T05:59:17.572Z,9.70
2022-12-26T06:03:20.418Z,9.70
2022-12-26T06:07:23.355Z,9.70
2022-12-26T06:11:26.988Z,9.70
2022-12-26T06:15:31.239Z,9.70
2022-12-26T06:19:38.904Z,9.70
2022-12-26T06:23:44.496Z,9.80
2022-12-26T06:27:47.716Z,9.70
2022-12-26T06:31:52.017Z,9.70
2022-12-26T06:35:54.988Z,9.70
2022-12-26T06:39:57.867Z,9.60
2022-12-26T06:44:00.679Z,9.60
2022-12-26T06:48:04.974Z,9.60
2022-12-26T06:52:08.526Z,9.50
2022-12-26T06:56:12.430Z,9.50
2022-12-26T07:00:16.018Z,9.50
2022-12-26T07:04:20.147Z,9.50
2022-12-26T07:08:22.965Z,9.50
2022-12-26T07:12:25.774Z,9.50
2022-12-26T07:16:28.631Z,9.50
2022-12-26T07:20:32.850Z,9.40
2022-12-26T07:24:35.702Z,9.40
2022-12-26T07:28:38.472Z,9.40
2022-12-26T07:32:41.360Z,9.40
2022-12-26T07:36:45.651Z,9.40
2022-12-26T07:40:48.484Z,9.40
2022-12-26T07:44:51.311Z,9.40
2022-12-26T07:48:54.126Z,9.40
2022-12-26T07:52:59.805Z,9.40
2022-12-26T07:57:38.168Z,9.40
2022-12-26T08:01:25.697Z,9.40
2022-12-26T08:05:28.545Z,9.40
2022-12-26T08:09:32.734Z,9.40
2022-12-26T08:13:35.720Z,9.40
2022-12-26T08:17:38.538Z,9.40
2022-12-26T08:21:41.354Z,9.40
2022-12-26T08:25:45.575Z,9.50
2022-12-26T08:29:48.370Z,9.50
2022-12-26T08:33:51.392Z,9.50
2022-12-26T08:37:54.223Z,9.50
2022-12-26T08:41:58.373Z,9.50
2022-12-26T08:46:02.114Z,9.50
2022-12-26T08:50:05.537Z,9.50
2022-12-26T08:54:08.334Z,9.50
2022-12-26T08:58:12.538Z,9.60
2022-12-26T09:02:15.457Z,9.60
2022-12-26T09:06:18.362Z,9.60
2022-12-26T09:10:21.153Z,9.60
2022-12-26T09:14:25.298Z,9.70
2022-12-26T09:18:28.122Z,9.70
2022-12-26T09:22:48.621Z,9.70
2022-12-26T09:26:51.445Z,9.80
2022-12-26T09:30:55.679Z,9.80
2022-12-26T09:34:59.203Z,9.90
2022-12-26T09:39:02.214Z,10.00
2022-12-26T09:43:10.359Z,10.00
2022-12-26T09:47:20.184Z,10.10
2022-12-26T09:51:23.431Z,10.20
2022-12-26T09:55:30.447Z,10.20
2022-12-26T09:59:35.391Z,10.30
2022-12-26T10:03:41.264Z,10.30
2022-12-26T10:07:46.530Z,10.40
2022-12-26T10:11:58.360Z,10.40
2022-12-26T10:16:04.460Z,10.40
2022-12-26T10:20:23.873Z,10.40
2022-12-26T10:24:27.613Z,10.40
2022-12-26T10:28:33.395Z,10.40
2022-12-26T10:32:39.133Z,10.40
2022-12-26T10:36:45.538Z,10.50
2022-12-26T10:40:50.613Z,10.80
2022-12-26T10:48:56.814Z,11.40
2022-12-26T10:53:01.484Z,11.30
2022-12-26T10:57:05.320Z,11.50
2022-12-26T11:01:27.500Z,11.80
2022-12-26T11:05:57.424Z,11.80
2022-12-26T11:09:56.016Z,11.80
2022-12-26T11:14:03.405Z,11.60
2022-12-26T11:18:10.819Z,11.50
2022-12-26T11:22:26.243Z,11.50
2022-12-26T11:26:30.622Z,11.40
2022-12-26T11:30:34.536Z,11.40
2022-12-26T11:34:39.583Z,11.30
2022-12-26T11:38:46.707Z,11.30
2022-12-26T11:42:52.383Z,11.20
2022-12-26T11:46:57.515Z,11.20
2022-12-26T11:51:00.617Z,11.10
2022-12-26T11:55:03.546Z,11.10
2022-12-26T11:59:14.666Z,11.10
2022-12-26T12:03:18.614Z,11.10
2022-12-26T12:07:31.090Z,11.20
2022-12-26T12:11:38.171Z,11.10
2022-12-26T12:15:44.916Z,11.20
2022-12-26T12:19:52.102Z,11.20
2022-12-26T12:24:02.022Z,11.30
2022-12-26T12:28:11.498Z,11.40
2022-12-26T12:32:18.214Z,11.40
2022-12-26T12:36:23.566Z,11.50
2022-12-26T12:40:33.082Z,11.50
2022-12-26T12:44:55.529Z,11.70
2022-12-26T12:49:07.076Z,11.80
2022-12-26T12:53:14.772Z,11.90
2022-12-26T12:57:20.460Z,11.90
2022-12-26T13:01:26.758Z,11.80
2022-12-26T13:05:36.244Z,11.80
2022-12-26T13:09:43.511Z,11.70
2022-12-26T13:13:53.487Z,11.60
2022-12-26T13:18:00.599Z,11.50
2022-12-26T13:22:07.306Z,11.50
2022-12-26T13:26:11.618Z,11.30
2022-12-26T13:30:16.369Z,11.20
2022-12-26T13:34:20.969Z,11.10
2022-12-26T13:38:25.955Z,11.00
2022-12-26T13:42:51.475Z,10.90
2022-12-26T13:46:55.717Z,10.70
2022-12-26T13:51:00.390Z,10.50
2022-12-26T13:55:32.482Z,10.40
2022-12-26T13:59:37.859Z,10.30
2022-12-26T14:03:49.373Z,10.10
2022-12-26T14:07:58.914Z,10.00
2022-12-26T14:12:22.501Z,9.80
2022-12-26T14:16:36.919Z,9.60
2022-12-26T14:20:42.323Z,9.50
2022-12-26T14:25:00.869Z,9.40
2022-12-26T14:29:08.232Z,9.20
2022-12-26T14:33:20.666Z,9.10
2022-12-26T14:37:26.737Z,9.00
2022-12-26T14:41:47.251Z,8.90
2022-12-26T14:45:51.437Z,8.80
2022-12-26T14:49:56.437Z,8.70
2022-12-26T14:54:17.582Z,8.60
2022-12-26T14:58:25.679Z,8.50
2022-12-26T15:02:33.364Z,8.40
2022-12-26T15:07:00.444Z,8.30
2022-12-26T15:11:25.029Z,8.20
2022-12-26T15:15:29.559Z,8.00
2022-12-26T15:19:50.020Z,7.90
2022-12-26T15:24:07.805Z,7.80
2022-12-26T15:28:31.817Z,7.70
2022-12-26T15:32:37.497Z,7.60
2022-12-26T15:36:44.434Z,7.50
2022-12-26T15:40:53.051Z,7.40
2022-12-26T15:45:14.452Z,7.40
2022-12-26T15:49:27.077Z,7.30
2022-12-26T15:53:35.311Z,7.20
2022-12-26T15:57:43.067Z,7.10
2022-12-26T16:01:48.830Z,7.00
2022-12-26T16:05:54.005Z,7.00
2022-12-26T16:09:57.611Z,6.90
2022-12-26T16:14:01.470Z,6.80
2022-12-26T16:18:16.253Z,6.80
2022-12-26T16:22:40.421Z,6.70
2022-12-26T16:26:44.497Z,6.60
2022-12-26T16:30:47.418Z,6.60
2022-12-26T16:34:51.966Z,6.50
2022-12-26T16:38:55.069Z,6.40
2022-12-26T16:42:59.747Z,6.40
2022-12-26T16:47:03.549Z,6.30
2022-12-26T16:51:09.161Z,6.30
2022-12-26T16:55:25.395Z,6.20
2022-12-26T16:59:32.344Z,6.20
2022-12-26T17:03:38.150Z,6.10
2022-12-26T17:07:45.294Z,6.10
2022-12-26T17:11:51.933Z,6.00
2022-12-26T17:15:56.245Z,5.90
2022-12-26T17:20:00.101Z,5.90
2022-12-26T17:24:15.976Z,5.80
2022-12-26T17:28:23.311Z,5.70
2022-12-26T17:32:36.656Z,5.70
2022-12-26T17:37:17.209Z,5.60
2022-12-26T17:41:05.357Z,5.60
2022-12-26T17:45:10.019Z,5.50
2022-12-26T17:49:14.825Z,5.50
2022-12-26T17:53:24.374Z,5.50
2022-12-26T17:57:29.693Z,5.50
2022-12-26T18:01:32.618Z,5.50
2022-12-26T18:05:36.025Z,5.40
2022-12-26T18:09:38.841Z,5.40
2022-12-26T18:13:43.285Z,5.40
2022-12-26T18:17:46.502Z,5.30
2022-12-26T18:21:49.517Z,5.30
2022-12-26T18:25:54.672Z,5.30
2022-12-26T18:29:59.526Z,5.30
2022-12-26T18:34:02.465Z,5.30
2022-12-26T18:38:05.289Z,5.20
2022-12-26T18:42:08.258Z,5.20
2022-12-26T18:46:17.229Z,5.20
2022-12-26T18:50:20.472Z,5.20
2022-12-26T18:54:23.610Z,5.20
2022-12-26T18:58:27.025Z,5.10
2022-12-26T19:02:31.814Z,5.10
2022-12-26T19:06:35.350Z,5.10
2022-12-26T19:10:38.310Z,5.10
2022-12-26T19:14:41.837Z,5.10
2022-12-26T19:18:46.062Z,5.00
2022-12-26T19:22:49.643Z,5.00
2022-12-26T19:26:52.988Z,5.00
2022-12-26T19:30:56.260Z,5.00
2022-12-26T19:35:00.884Z,4.90
2022-12-26T19:39:04.016Z,4.90
2022-12-26T19:43:08.134Z,4.90
2022-12-26T19:47:13.045Z,4.90
2022-12-26T19:51:18.034Z,4.80
2022-12-26T19:55:20.837Z,4.80
2022-12-26T19:59:23.631Z,4.80
2022-12-26T20:03:26.479Z,4.70
2022-12-26T20:07:30.907Z,4.70
2022-12-26T20:11:36.246Z,4.70
2022-12-26T20:15:39.181Z,4.70
2022-12-26T20:19:43.886Z,4.70
2022-12-26T20:23:48.758Z,4.70
2022-12-26T20:27:51.663Z,4.70
2022-12-26T20:31:55.380Z,4.60
2022-12-26T20:36:07.965Z,4.60
2022-12-26T20:40:13.361Z,4.60
2022-12-26T20:44:16.843Z,4.60
2022-12-26T20:48:19.748Z,4.60
2022-12-26T20:52:23.383Z,4.60
2022-12-26T20:56:27.599Z,4.50
2022-12-26T21:00:30.882Z,4.60
2022-12-26T21:04:34.190Z,4.50
2022-12-26T21:08:37.875Z,4.50
2022-12-26T21:12:42.068Z,4.50
2022-12-26T21:16:45.826Z,4.50
2022-12-26T21:20:48.743Z,4.50
2022-12-26T21:24:51.629Z,4.50
2022-12-26T21:28:59.879Z,4.60
2022-12-26T21:33:02.714Z,4.50
2022-12-26T21:37:23.223Z,4.50
2022-12-26T21:41:26.379Z,4.50
2022-12-26T21:45:31.691Z,4.50
2022-12-26T21:49:34.611Z,4.40
2022-12-26T21:53:37.425Z,4.40
2022-12-26T21:57:40.239Z,4.40
2022-12-26T22:01:44.554Z,4.40
2022-12-26T22:05:49.120Z,4.40
2022-12-26T22:09:51.963Z,4.40
2022-12-26T22:13:54.775Z,4.40
2022-12-26T22:17:59.201Z,4.50
2022-12-26T22:22:02.836Z,4.50
2022-12-26T22:26:06.404Z,4.50
2022-12-26T22:30:10.117Z,4.50
2022-12-26T22:34:16.384Z,4.50
2022-12-26T22:38:19.711Z,4.50
2022-12-26T22:42:22.555Z,4.50
2022-12-26T22:46:25.820Z,4.50
2022-12-26T22:50:30.126Z,4.50
2022-12-26T22:54:33.208Z,4.50
2022-12-26T22:58:36.106Z,4.50
2022-12-26T23:02:39.047Z,4.50
2022-12-26T23:06:43.691Z,4.40
2022-12-26T23:10:47.320Z,4.40
2022-12-26T23:14:50.223Z,4.30
2022-12-26T23:19:23.870Z,4.30
2022-12-26T23:23:28.395Z,4.30
2022-12-26T23:27:48.511Z,4.20
2022-12-26T23:31:51.375Z,4.30
2022-12-26T23:35:54.180Z,4.20
2022-12-26T23:39:58.311Z,4.20
2022-12-26T23:44:01.124Z,4.20
2022-12-26T23:48:04.017Z,4.20
2022-12-26T23:52:06.802Z,4.20
2022-12-26T23:56:11.202Z,4.10
